PDT,Max TemperatureF,Mean TemperatureF,Min TemperatureF,Max Dew PointF,MeanDew PointF,Min DewpointF,Max Humidity, Mean Humidity, Min Humidity, Max Sea Level PressureIn, Mean Sea Level PressureIn, Min Sea Level PressureIn, Max VisibilityMiles, Mean VisibilityMiles, Min VisibilityMiles, Max Wind SpeedMPH, Mean Wind SpeedMPH, Max Gust SpeedMPH,PrecipitationIn, CloudCover, Events, WindDirDegrees
2013-10-1,53,46,38,39,37,34,92,76,59,30.13,30.00,29.90,10,10,10,21,12,26,0.01,4,Rain,212
2013-10-2,51,44,36,37,35,33,92,72,52,30.17,30.11,30.05,10,10,10,14,6,17,0.00,6,,66
2013-10-3,59,47,35,35,32,28,92,63,33,30.41,30.25,30.06,10,10,10,13,5,18,0.00,3,,15
2013-10-4,60,48,35,35,31,27,92,61,30,30.53,30.47,30.41,10,10,10,10,4,13,0.00,2,,142
2013-10-5,63,50,36,35,31,26,82,54,25,30.45,30.38,30.27,10,10,10,12,3,15,0.00,5,,147
2013-10-6,67,53,39,40,37,32,86,60,34,30.27,30.11,29.95,10,10,10,12,6,15,0.00,4,,57
2013-10-7,61,52,42,41,35,31,70,55,40,29.94,29.88,29.82,10,10,10,29,14,37,0.06,3,Rain,195
2013-10-8,51,46,40,39,38,34,92,77,61,30.03,29.92,29.86,10,10,9,23,9,25,0.01,7,Fog-Rain,188
2013-10-9,56,45,34,40,37,34,100,74,47,30.10,30.03,29.92,10,5,0,14,6,16,0.00,6,Fog,38
2013-10-10,54,46,37,39,37,33,93,72,50,30.01,29.91,29.86,10,10,7,14,6,17,T,7,Fog-Rain,205
2013-10-11,55,45,35,36,33,29,92,64,35,30.14,30.08,30.03,10,8,0,8,2,10,0.00,6,Fog,67
2013-10-12,53,46,39,36,34,31,79,64,48,30.15,30.08,30.03,10,10,10,12,5,14,T,6,Rain,15
2013-10-13,55,41,27,32,29,26,85,62,38,30.30,30.23,30.15,10,10,9,12,3,14,0.00,1,,303
2013-10-14,57,43,29,32,28,25,85,58,30,30.44,30.39,30.31,10,10,10,12,2,15,0.00,1,,338
2013-10-15,57,44,30,33,29,25,85,59,32,30.44,30.35,30.19,10,10,7,10,2,13,0.00,3,,175
2013-10-16,59,48,37,34,32,29,76,57,37,30.19,30.16,30.13,10,10,10,9,2,13,0.00,4,,104
2013-10-17,57,44,30,38,34,28,92,70,47,30.30,30.25,30.17,10,10,7,9,2,13,0.00,1,Fog,65
2013-10-18,59,46,32,37,34,30,92,66,40,30.34,30.27,30.20,10,10,7,10,5,12,0.00,1,Fog,183
2013-10-19,61,49,36,36,34,32,89,63,37,30.19,30.15,30.09,10,10,10,9,5,12,0.00,5,,188
2013-10-20,63,50,36,38,35,31,82,61,39,30.19,30.15,30.12,10,10,10,12,5,14,0.00,3,,172
2013-10-21,66,52,37,42,38,35,92,66,40,30.26,30.20,30.17,10,8,0,9,2,13,0.00,1,Fog,64
2013-10-22,63,51,39,43,41,37,100,74,48,30.26,30.19,30.14,10,7,0,8,5,,0.00,2,Fog,53
2013-10-23,60,50,40,43,41,39,100,76,51,30.21,30.15,30.12,10,6,0,12,6,14,0.00,2,Fog,53
2013-10-24,61,50,39,43,40,34,100,73,46,30.17,30.13,30.09,10,6,0,12,4,14,0.00,2,Fog,53
2013-10-25,55,47,38,43,40,38,100,83,66,30.31,30.24,30.14,10,4,0,10,6,13,0.00,4,Fog,48
2013-10-26,51,43,34,41,39,32,100,84,68,30.35,30.25,30.06,10,3,0,10,5,18,0.00,2,Fog,44
2013-10-27,48,41,33,43,36,23,100,71,41,30.08,29.89,29.79,10,3,0,31,12,41,0.01,8,Fog-Rain,48
2013-10-28,45,39,33,28,19,15,70,51,31,29.99,29.96,29.91,10,10,8,29,18,38,T,3,Snow,34
2013-10-29,47,36,25,21,18,15,69,51,33,30.04,30.01,29.96,10,10,10,10,4,15,0.00,0,,156
2013-10-30,47,37,27,25,23,19,81,60,38,30.11,30.08,30.03,10,10,10,12,5,14,0.00,3,,158
2013-10-31,55,46,36,35,31,25,85,64,43,30.16,30.08,30.04,10,10,10,13,7,16,T,4,,197